Brownsville, Washington
Current Conditions -  °F | °C
As of 10:55 AM on Friday 31 Oct 2014 (Local Time) from KPWT Reporting Station
Overcast Overcast  
Wind Chill: 50°   Ceiling: 500
Heat Index: 50°   Visibility: 10mi
Dew Point: 50°   Wind: 10mph
Humidity: 100%   Direction: 190°S
Pressure: 29.83"   Gusts: NA
Location:  47.5964°N, 122.62°W
Report Text: KPWT 311755Z AUTO 19009KT 10SM BKN005 BKN016 OVC030 10/10 A2983 RMK AO1 P0004 60058 10110 20100 52030
Loading
Personal Weather Stations






























Interactive Weather Map
Tropical Storm Tracking
New forecast layout! Learn more

10-Day Weather Forecast

Advertisements
Track Severe Weather on mobile